Time;durP1;ratioP1;P1;durP2;ratioP2;P2;SDS_P1;SDS_P2;PMS_P1;PMS_P2;Temp;Humidity;BMP_temperature;BMP_pressure;BME280_temperature;BME280_humidity;BME280_pressure;Samples;Min_cycle;Max_cycle;Signal;HPM_P1;HPM_P2
2024/03/28 05:47:24;;;;;;;10.00;6.10;;;;;;;6.18;100.00;99877.69;110382;1275;23216;-45
2024/03/28 05:49:52;;;;;;;10.70;6.00;;;;;;;6.25;100.00;99872.05;110247;1276;22293;-52
2024/03/28 05:52:19;;;;;;;10.30;6.10;;;;;;;6.34;100.00;99865.73;110218;1269;22838;-45
2024/03/28 05:54:47;;;;;;;7.10;4.80;;;;;;;6.43;100.00;99860.29;110249;1276;22285;-46
2024/03/28 05:57:14;;;;;;;8.00;4.80;;;;;;;6.52;100.00;99857.77;110230;1276;22438;-46
2024/03/28 05:59:41;;;;;;;6.90;4.80;;;;;;;6.59;100.00;99852.48;110303;1276;22144;-45
2024/03/28 06:02:09;;;;;;;9.00;4.10;;;;;;;6.67;100.00;99849.60;109419;1276;22380;-46
2024/03/28 06:04:36;;;;;;;5.80;4.00;;;;;;;6.75;100.00;99835.09;110257;1276;23058;-57
2024/03/28 06:07:04;;;;;;;5.70;3.90;;;;;;;6.83;100.00;99833.09;108063;1270;22998;-53
2024/03/28 06:09:31;;;;;;;7.20;3.60;;;;;;;6.91;100.00;99848.58;110231;1276;22262;-46
2024/03/28 06:11:58;;;;;;;6.30;4.30;;;;;;;7.01;100.00;99850.21;109760;1267;22534;-46
2024/03/28 06:14:26;;;;;;;8.50;3.90;;;;;;;7.10;100.00;99853.05;107139;1276;22534;-47
2024/03/28 06:16:53;;;;;;;9.20;3.90;;;;;;;7.19;100.00;99849.46;109179;1276;23125;-46
2024/03/28 06:19:21;;;;;;;4.80;3.70;;;;;;;7.27;99.95;99849.00;110277;1276;22841;-44
2024/03/28 06:21:48;;;;;;;7.20;3.50;;;;;;;7.35;99.60;99846.11;110301;1276;22297;-46
2024/03/28 06:24:15;;;;;;;7.80;3.80;;;;;;;7.42;98.98;99847.17;110269;1276;22673;-46
2024/03/28 06:26:43;;;;;;;6.30;3.90;;;;;;;7.50;98.49;99851.04;109249;1273;25465;-52
2024/03/28 06:29:10;;;;;;;9.10;4.00;;;;;;;7.57;98.28;99842.05;108348;1260;22524;-54
2024/03/28 06:31:40;;;;;;;8.70;3.90;;;;;;;7.69;97.52;99840.20;107402;1276;24825;-53
2024/03/28 06:34:07;;;;;;;6.10;3.50;;;;;;;7.77;96.59;99840.23;108072;1276;22295;-53
2024/03/28 06:36:35;;;;;;;9.00;3.60;;;;;;;7.81;95.92;99837.46;110285;1276;22223;-52
2024/03/28 06:39:02;;;;;;;6.10;3.70;;;;;;;7.83;95.29;99829.32;110277;1276;22266;-52
2024/03/28 06:41:30;;;;;;;5.80;3.70;;;;;;;7.84;95.46;99830.20;110268;1276;22484;-46
2024/03/28 06:43:57;;;;;;;5.80;4.10;;;;;;;7.86;95.71;99833.49;110278;1275;23193;-51
2024/03/28 06:46:25;;;;;;;7.00;4.00;;;;;;;7.89;95.64;99828.82;110239;1276;22469;-46
2024/03/28 06:48:52;;;;;;;5.20;3.90;;;;;;;7.91;95.38;99831.96;110124;1276;23254;-52
2024/03/28 06:51:21;;;;;;;8.00;4.20;;;;;;;7.93;95.51;99830.91;110149;1276;22401;-51
2024/03/28 06:53:50;;;;;;;7.30;3.80;;;;;;;7.96;95.46;99832.15;109927;1269;22212;-51
2024/03/28 06:56:17;;;;;;;10.70;5.20;;;;;;;8.00;95.20;99825.02;110091;1276;22204;-52
2024/03/28 06:58:45;;;;;;;7.00;4.20;;;;;;;8.06;95.63;99822.80;108442;1276;22527;-46
2024/03/28 07:01:12;;;;;;;7.50;4.60;;;;;;;8.14;95.03;99827.84;108369;1276;25441;-52
2024/03/28 07:03:40;;;;;;;5.80;4.30;;;;;;;8.22;94.92;99825.61;110160;1276;22268;-44
2024/03/28 07:06:10;;;;;;;11.20;4.00;;;;;;;8.32;94.31;99815.73;110184;1276;22274;-45
2024/03/28 07:08:43;;;;;;;6.90;4.60;;;;;;;8.41;93.20;99815.77;110138;1276;22240;-45
2024/03/28 07:11:11;;;;;;;5.40;4.00;;;;;;;8.47;92.33;99812.65;110133;1276;22261;-52
2024/03/28 07:13:39;;;;;;;6.60;4.10;;;;;;;8.51;91.30;99805.17;110142;1276;22776;-53
2024/03/28 07:16:06;;;;;;;5.20;4.00;;;;;;;8.55;91.82;99797.70;109569;1276;22324;-46
2024/03/28 07:18:34;;;;;;;5.90;3.70;;;;;;;8.59;90.66;99794.06;110183;1276;23018;-51
2024/03/28 07:21:01;;;;;;;6.50;4.30;;;;;;;8.61;89.98;99793.36;110173;1276;22268;-51
2024/03/28 07:23:30;;;;;;;7.20;4.20;;;;;;;8.64;90.09;99793.19;110148;1269;22279;-52
2024/03/28 07:25:57;;;;;;;6.90;3.80;;;;;;;8.68;88.88;99789.70;110160;1270;22543;-52
2024/03/28 07:28:25;;;;;;;5.30;3.20;;;;;;;8.71;87.86;99787.98;108934;1269;22383;-53
2024/03/28 07:30:52;;;;;;;5.00;2.70;;;;;;;8.74;87.16;99783.44;109253;1276;25506;-52
2024/03/28 07:33:19;;;;;;;5.20;3.60;;;;;;;8.75;86.84;99782.75;109459;1276;22296;-45
2024/03/28 07:35:47;;;;;;;5.40;3.40;;;;;;;8.78;87.68;99782.91;109288;1276;22374;-45
2024/03/28 07:38:14;;;;;;;5.10;3.00;;;;;;;8.83;86.65;99767.61;110146;1276;22275;-45
2024/03/28 07:40:45;;;;;;;4.30;3.10;;;;;;;8.89;86.91;99767.61;110171;1276;22503;-52
2024/03/28 07:43:13;;;;;;;5.70;3.10;;;;;;;8.95;86.58;99764.98;110080;1277;22285;-52
2024/03/28 07:45:41;;;;;;;4.70;3.20;;;;;;;9.01;86.41;99756.27;110185;1276;23049;-52
2024/03/28 07:48:08;;;;;;;3.00;2.40;;;;;;;9.05;86.15;99755.23;110013;1276;22162;-46
2024/03/28 07:50:36;;;;;;;6.70;2.90;;;;;;;9.09;86.53;99756.43;109879;1276;23191;-46
2024/03/28 07:53:04;;;;;;;3.40;2.80;;;;;;;9.14;86.76;99755.03;110109;1277;22169;-46
2024/03/28 07:55:31;;;;;;;5.30;2.80;;;;;;;9.21;86.83;99745.42;110130;1276;22323;-47
2024/03/28 07:57:59;;;;;;;4.00;2.70;;;;;;;9.27;86.49;99745.23;110116;1276;23069;-46
2024/03/28 08:00:27;;;;;;;5.90;3.70;;;;;;;9.35;86.75;99743.29;110066;1273;22257;-46
2024/03/28 08:02:54;;;;;;;3.90;2.60;;;;;;;9.46;87.59;99738.90;109947;1276;23151;-46
2024/03/28 08:05:22;;;;;;;7.20;3.00;;;;;;;9.61;88.80;99740.58;110150;1276;22371;-47
2024/03/28 08:07:50;;;;;;;4.30;3.60;;;;;;;9.77;89.09;99732.13;109872;1276;22435;-46
2024/03/28 08:10:17;;;;;;;7.40;3.60;;;;;;;9.89;87.90;99725.27;110137;1276;22271;-45
2024/03/28 08:12:45;;;;;;;4.80;3.90;;;;;;;9.94;87.36;99727.67;109918;1276;22299;-45
2024/03/28 08:15:14;;;;;;;5.20;3.20;;;;;;;10.00;88.04;99721.89;109652;1275;22534;-47
2024/03/28 08:17:43;;;;;;;7.20;3.50;;;;;;;10.06;87.68;99715.39;109955;1278;22287;-44
2024/03/28 08:20:15;;;;;;;16.00;4.60;;;;;;;10.13;89.44;99719.18;109624;1276;23357;-45
2024/03/28 08:22:43;;;;;;;6.90;3.70;;;;;;;10.22;90.03;99711.97;110085;1276;22222;-45
2024/03/28 08:25:10;;;;;;;7.20;4.20;;;;;;;10.28;89.98;99720.48;110059;1276;22994;-45
2024/03/28 08:27:38;;;;;;;6.10;4.50;;;;;;;10.34;90.58;99715.74;110016;1276;22505;-47
2024/03/28 08:30:06;;;;;;;7.10;4.60;;;;;;;10.35;89.86;99711.72;110141;1276;22387;-46
2024/03/28 08:32:34;;;;;;;6.30;4.00;;;;;;;10.36;90.48;99711.89;110104;1276;22200;-46
2024/03/28 08:35:02;;;;;;;7.10;4.40;;;;;;;10.40;90.87;99712.91;110148;1276;23398;-45
2024/03/28 08:37:30;;;;;;;6.90;4.00;;;;;;;10.45;90.64;99709.38;110075;1276;22293;-45
2024/03/28 08:39:58;;;;;;;5.30;4.20;;;;;;;10.50;91.26;99709.14;110064;1270;22932;-52
2024/03/28 08:42:25;;;;;;;5.20;3.90;;;;;;;10.57;91.59;99702.98;109918;1276;22588;-52
2024/03/28 08:44:52;;;;;;;7.10;5.50;;;;;;;10.64;90.72;99691.40;110083;1273;22833;-51
2024/03/28 08:47:20;;;;;;;6.30;4.10;;;;;;;10.71;90.20;99684.72;110158;1276;22152;-45
2024/03/28 08:49:48;;;;;;;7.50;5.10;;;;;;;10.75;90.12;99684.84;110104;1272;22294;-45
2024/03/28 08:52:15;;;;;;;7.30;4.90;;;;;;;10.79;90.62;99684.96;109074;1275;23429;-45
2024/03/28 08:54:42;;;;;;;7.00;4.60;;;;;;;10.86;90.52;99691.01;109690;1276;22298;-46
2024/03/28 08:57:11;;;;;;;10.00;5.30;;;;;;;10.93;90.45;99690.58;110161;1273;22690;-46
2024/03/28 08:59:39;;;;;;;9.90;5.20;;;;;;;11.01;90.56;99687.17;109022;1260;22539;-46
2024/03/28 09:02:07;;;;;;;9.70;5.30;;;;;;;11.09;90.75;99689.16;108338;1276;22625;-47
2024/03/28 09:04:35;;;;;;;12.30;5.40;;;;;;;11.17;91.36;99693.27;109517;1276;22641;-46
2024/03/28 09:07:03;;;;;;;7.00;5.30;;;;;;;11.25;90.81;99691.25;108211;1276;23047;-45
2024/03/28 09:09:31;;;;;;;10.60;5.70;;;;;;;11.30;90.56;99686.84;110211;1270;22281;-46
2024/03/28 09:11:59;;;;;;;8.40;5.70;;;;;;;11.35;90.06;99687.81;110275;1270;23082;-46
2024/03/28 09:14:27;;;;;;;10.90;5.10;;;;;;;11.38;88.62;99681.48;109890;1273;22209;-46
2024/03/28 09:16:54;;;;;;;10.50;5.00;;;;;;;11.40;87.59;99687.74;110257;1270;22429;-45
2024/03/28 09:19:22;;;;;;;6.30;4.80;;;;;;;11.45;87.86;99690.83;110231;1273;22666;-53
2024/03/28 09:21:49;;;;;;;8.10;4.90;;;;;;;11.53;87.60;99682.86;110231;1276;22501;-45
2024/03/28 09:24:17;;;;;;;11.00;5.40;;;;;;;11.61;87.45;99685.01;110223;1270;22394;-45
2024/03/28 09:26:46;;;;;;;8.50;5.40;;;;;;;11.69;87.46;99685.27;110188;1276;22401;-45
2024/03/28 09:29:19;;;;;;;6.80;5.30;;;;;;;11.77;87.23;99678.51;110024;1275;22429;-47
2024/03/28 09:31:48;;;;;;;9.30;5.90;;;;;;;11.88;87.93;99670.52;110202;1271;23119;-46
2024/03/28 09:34:16;;;;;;;9.50;5.90;;;;;;;12.03;88.28;99665.73;110130;1276;22468;-46
2024/03/28 09:36:43;;;;;;;7.20;4.90;;;;;;;12.21;87.90;99668.59;109913;1276;22245;-46
2024/03/28 09:39:12;;;;;;;12.50;5.30;;;;;;;12.37;86.39;99669.73;109893;1276;22345;-54
2024/03/28 09:41:45;;;;;;;6.40;5.30;;;;;;;12.56;87.87;99666.59;110207;1270;22407;-52
2024/03/28 09:44:20;;;;;;;12.20;6.00;;;;;;;12.78;86.42;99658.13;110174;1276;22252;-46
2024/03/28 09:46:48;;;;;;;7.90;5.60;;;;;;;12.99;86.48;99654.20;110182;1276;22528;-51
2024/03/28 09:49:23;;;;;;;6.30;4.90;;;;;;;13.21;85.85;99644.67;110169;1276;22367;-55
2024/03/28 09:51:52;;;;;;;8.10;5.50;;;;;;;13.42;83.30;99648.78;110061;1276;22154;-52
2024/03/28 09:54:19;;;;;;;11.80;6.00;;;;;;;13.59;84.29;99644.39;110070;1266;22325;-52
2024/03/28 09:56:47;;;;;;;9.50;6.40;;;;;;;13.70;82.58;99645.36;110236;1269;22357;-46
2024/03/28 09:59:14;;;;;;;7.80;5.00;;;;;;;13.74;82.57;99647.90;110264;1273;22295;-46
2024/03/28 10:01:42;;;;;;;9.10;4.90;;;;;;;13.80;81.63;99646.90;110196;1276;22581;-46
2024/03/28 10:04:13;;;;;;;7.30;4.70;;;;;;;13.86;81.61;99643.77;110205;1276;22386;-54
2024/03/28 10:06:50;;;;;;;7.10;4.50;;;;;;;13.94;78.96;99646.56;110206;1276;23188;-53
2024/03/28 10:09:21;;;;;;;5.60;3.90;;;;;;;14.04;76.90;99648.07;109621;1270;134981;-47
2024/03/28 10:11:52;;;;;;;4.90;4.10;;;;;;;14.10;74.84;99641.95;108734;1275;22227;-46
2024/03/28 10:14:22;;;;;;;5.20;3.50;;;;;;;14.13;74.13;99626.08;110143;1272;22903;-53
2024/03/28 10:16:58;;;;;;;7.40;3.90;;;;;;;14.13;74.30;99628.56;110172;1270;23113;-53
2024/03/28 10:19:28;;;;;;;6.30;3.80;;;;;;;14.16;73.44;99627.77;110223;1270;23171;-52
2024/03/28 10:22:06;;;;;;;5.90;4.30;;;;;;;14.22;73.43;99627.45;110160;1270;22450;-53
2024/03/28 10:24:37;;;;;;;7.00;4.30;;;;;;;14.42;73.81;99632.05;110150;1270;22375;-52
2024/03/28 10:27:15;;;;;;;8.10;4.00;;;;;;;14.62;72.26;99627.48;110154;1273;23652;-53
2024/03/28 10:29:48;;;;;;;6.10;3.50;;;;;;;14.84;72.45;99621.61;110153;1270;23343;-47
2024/03/28 10:32:16;;;;;;;7.00;3.20;;;;;;;15.14;71.74;99625.50;110155;1270;23149;-53
2024/03/28 10:34:47;;;;;;;4.20;3.10;;;;;;;15.40;68.69;99632.99;110126;1276;22428;-52
2024/03/28 10:37:19;;;;;;;6.00;3.00;;;;;;;15.70;69.37;99626.98;110009;1273;22392;-54
2024/03/28 10:39:49;;;;;;;8.20;2.50;;;;;;;16.10;67.22;99627.45;110146;1269;23177;-53
2024/03/28 10:42:17;;;;;;;6.30;2.60;;;;;;;16.36;62.55;99617.09;110196;1270;22408;-52
2024/03/28 10:44:45;;;;;;;4.90;2.70;;;;;;;16.51;59.21;99617.09;109874;1269;23167;-52
2024/03/28 10:47:13;;;;;;;3.10;2.30;;;;;;;16.64;58.58;99606.77;110269;1270;22457;-53
2024/03/28 10:50:13;;;;;;;5.90;3.00;;;;;;;16.79;56.51;99608.39;110224;1276;22439;-46
2024/03/28 10:52:48;;;;;;;2.60;2.30;;;;;;;16.87;55.06;99603.52;110168;1276;22423;-47
2024/03/28 10:55:19;;;;;;;5.20;2.40;;;;;;;16.90;55.59;99597.75;110057;1272;22347;-48
2024/03/28 10:57:47;;;;;;;5.00;3.00;;;;;;;16.98;55.77;99593.21;109971;1276;22983;-46
2024/03/28 11:00:14;;;;;;;8.40;2.90;;;;;;;17.14;56.02;99579.09;110203;1270;22222;-46
2024/03/28 11:02:43;;;;;;;5.30;3.00;;;;;;;17.20;55.95;99578.29;110159;1276;22393;-53
2024/03/28 11:05:11;;;;;;;4.50;2.90;;;;;;;17.24;55.77;99569.87;110150;1276;22471;-53
2024/03/28 11:07:38;;;;;;;8.60;2.40;;;;;;;17.32;55.29;99561.28;109589;1276;22903;-46
2024/03/28 11:10:07;;;;;;;6.30;2.40;;;;;;;17.45;55.29;99559.70;109990;1272;22407;-46
2024/03/28 11:12:37;;;;;;;6.10;2.70;;;;;;;17.56;55.00;99552.57;109975;1276;22237;-47
2024/03/28 11:15:06;;;;;;;3.10;2.00;;;;;;;17.58;54.47;99548.09;110001;1276;22296;-47
2024/03/28 11:17:39;;;;;;;2.70;1.80;;;;;;;17.63;55.42;99545.77;110152;1276;23551;-53
2024/03/28 11:20:08;;;;;;;2.40;1.90;;;;;;;17.86;55.67;99534.98;110145;1276;23377;-53
2024/03/28 11:22:36;;;;;;;3.10;2.10;;;;;;;18.09;54.57;99540.34;110176;1276;22243;-45
2024/03/28 11:25:30;;;;;;;5.90;2.30;;;;;;;18.17;54.36;99540.34;110099;1276;22295;-46
2024/03/28 11:28:10;;;;;;;2.20;1.90;;;;;;;18.17;54.89;99539.64;110190;1276;22297;-46
2024/03/28 11:30:38;;;;;;;6.70;2.40;;;;;;;18.13;54.82;99538.60;110241;1275;22827;-54
2024/03/28 11:33:10;;;;;;;4.60;2.40;;;;;;;18.10;54.88;99527.80;110150;1276;23175;-47
2024/03/28 11:35:38;;;;;;;5.60;2.00;;;;;;;18.01;54.67;99525.69;110228;1276;23257;-46
2024/03/28 11:38:09;;;;;;;5.10;2.50;;;;;;;17.91;55.54;99518.88;110194;1276;22566;-53
2024/03/28 11:40:37;;;;;;;5.50;2.10;;;;;;;17.85;55.52;99511.55;110204;1270;22275;-52
2024/03/28 11:43:12;;;;;;;7.00;2.80;;;;;;;17.78;55.64;99507.92;110160;1270;22861;-46
2024/03/28 11:45:57;;;;;;;4.70;2.30;;;;;;;17.72;56.26;99496.20;110199;1276;23313;-46
2024/03/28 11:48:26;;;;;;;13.50;3.30;;;;;;;17.60;56.06;99495.28;110245;1272;22236;-51
2024/03/28 11:50:55;;;;;;;3.40;1.80;;;;;;;17.50;56.59;99481.57;110047;1276;22396;-46
2024/03/28 11:53:22;;;;;;;6.70;2.10;;;;;;;17.42;56.89;99482.95;110079;1272;22213;-46
2024/03/28 11:55:51;;;;;;;8.10;2.10;;;;;;;17.38;57.38;99472.23;110188;1270;23184;-46
2024/03/28 11:58:26;;;;;;;5.80;1.90;;;;;;;17.34;57.59;99467.27;109630;1270;22555;-45
2024/03/28 12:01:03;;;;;;;5.80;2.40;;;;;;;17.40;57.44;99458.02;109842;1270;22459;-46
2024/03/28 12:03:31;;;;;;;3.50;1.50;;;;;;;17.46;58.04;99454.23;110167;1272;22319;-46
2024/03/28 12:06:02;;;;;;;4.10;2.00;;;;;;;17.59;57.28;99451.23;109825;1276;22444;-46
2024/03/28 12:08:30;;;;;;;5.40;2.00;;;;;;;17.66;57.18;99457.27;109147;1276;22992;-53
2024/03/28 12:11:08;;;;;;;4.30;1.70;;;;;;;17.69;56.22;99441.66;108989;1275;22175;-51
2024/03/28 12:13:38;;;;;;;6.70;1.70;;;;;;;17.60;55.58;99443.95;109394;1269;22504;-47
2024/03/28 12:16:07;;;;;;;5.60;2.10;;;;;;;17.46;55.89;99438.89;109442;1276;22887;-53
2024/03/28 12:18:36;;;;;;;6.10;1.70;;;;;;;17.44;56.93;99444.64;109974;1269;23520;-46
2024/03/28 12:21:05;;;;;;;2.20;1.30;;;;;;;17.50;56.01;99445.63;110106;1274;22980;-46
2024/03/28 12:23:35;;;;;;;5.20;1.60;;;;;;;17.54;56.14;99439.25;110178;1276;22383;-52
2024/03/28 12:26:03;;;;;;;9.90;1.50;;;;;;;17.55;55.88;99428.98;110219;1273;23121;-53
2024/03/28 12:28:31;;;;;;;3.50;1.60;;;;;;;17.48;55.59;99434.95;110198;1270;22315;-46
2024/03/28 12:31:00;;;;;;;4.90;1.20;;;;;;;17.41;56.89;99431.55;110212;1275;22458;-46
2024/03/28 12:33:28;;;;;;;4.90;1.90;;;;;;;17.39;56.67;99422.83;110166;1276;22490;-45
2024/03/28 12:35:56;;;;;;;5.50;1.80;;;;;;;17.33;56.13;99414.98;110035;1271;22392;-54
2024/03/28 12:38:24;;;;;;;2.40;1.00;;;;;;;17.24;55.14;99407.06;110163;1276;22198;-47
2024/03/28 12:40:52;;;;;;;4.20;1.60;;;;;;;17.11;55.42;99397.88;110200;1276;22992;-53
2024/03/28 12:43:24;;;;;;;6.50;1.20;;;;;;;17.00;55.72;99402.55;110150;1270;22316;-47
2024/03/28 12:46:09;;;;;;;4.40;1.80;;;;;;;16.89;55.30;99396.67;110128;1275;23282;-52
2024/03/28 12:48:37;;;;;;;6.10;1.80;;;;;;;16.77;56.23;99407.19;109988;1270;22526;-46
2024/03/28 12:51:06;;;;;;;4.50;1.60;;;;;;;16.71;56.59;99403.36;110004;1276;23051;-46
2024/03/28 12:53:36;;;;;;;5.20;1.70;;;;;;;16.80;56.72;99401.77;110063;1269;22378;-46
2024/03/28 12:56:04;;;;;;;7.00;2.30;;;;;;;16.88;56.96;99400.93;110014;1276;23078;-46
2024/03/28 12:58:32;;;;;;;4.00;1.50;;;;;;;16.94;56.06;99386.08;110098;1276;22964;-53
2024/03/28 13:01:01;;;;;;;3.40;1.50;;;;;;;16.97;55.81;99384.34;110190;1276;22401;-53
2024/03/28 13:03:28;;;;;;;5.00;1.90;;;;;;;17.02;56.22;99388.03;110084;1276;22202;-47
2024/03/28 13:05:56;;;;;;;3.90;1.80;;;;;;;17.07;55.63;99382.54;108526;1276;22450;-46
2024/03/28 13:08:24;;;;;;;6.40;1.70;;;;;;;17.09;54.79;99374.55;109601;1276;23124;-47
2024/03/28 13:10:52;;;;;;;4.30;1.70;;;;;;;17.09;54.44;99368.55;110064;1276;22816;-48
2024/03/28 13:13:20;;;;;;;6.40;2.20;;;;;;;17.12;54.58;99354.70;109955;1275;22358;-46
2024/03/28 13:15:47;;;;;;;6.80;2.00;;;;;;;17.14;54.55;99357.26;110223;1276;23297;-46
2024/03/28 13:18:17;;;;;;;5.80;2.00;;;;;;;17.17;54.44;99349.04;109883;1257;24202;-48
2024/03/28 13:20:46;;;;;;;7.70;2.20;;;;;;;17.19;54.73;99342.21;110036;1276;22420;-46
2024/03/28 13:23:14;;;;;;;6.80;2.00;;;;;;;17.16;54.47;99336.72;110020;1276;22268;-53
2024/03/28 13:25:41;;;;;;;3.40;2.00;;;;;;;17.07;54.53;99337.66;110198;1276;22294;-52
2024/03/28 13:28:27;;;;;;;5.30;1.80;;;;;;;16.95;54.60;99344.46;110185;1276;22215;-46
2024/03/28 13:30:55;;;;;;;6.30;1.50;;;;;;;16.88;55.78;99343.15;110237;1276;22439;-47
2024/03/28 13:33:23;;;;;;;6.20;1.60;;;;;;;16.83;55.87;99330.86;110160;1276;22927;-52
2024/03/28 13:35:50;;;;;;;8.10;1.70;;;;;;;16.79;55.37;99328.22;110175;1276;22887;-47
2024/03/28 13:38:18;;;;;;;7.50;2.10;;;;;;;16.72;55.16;99313.38;110113;1276;22999;-46
2024/03/28 13:40:47;;;;;;;7.60;2.20;;;;;;;16.68;55.55;99313.13;110138;1276;22114;-52
2024/03/28 13:43:15;;;;;;;8.70;2.20;;;;;;;16.70;55.67;99310.44;110125;1276;22423;-46
2024/03/28 13:45:43;;;;;;;7.10;1.70;;;;;;;16.77;55.99;99310.86;110165;1276;22352;-47
2024/03/28 13:48:20;;;;;;;8.70;2.00;;;;;;;16.86;55.25;99302.91;109935;1276;22324;-52
2024/03/28 13:50:48;;;;;;;8.80;2.30;;;;;;;16.91;55.17;99302.02;109066;1275;22541;-46
2024/03/28 13:53:16;;;;;;;10.30;2.60;;;;;;;16.96;55.82;99296.88;110282;1276;22368;-52
2024/03/28 13:55:46;;;;;;;5.10;1.90;;;;;;;17.00;55.69;99291.08;110202;1272;25306;-53
2024/03/28 13:58:13;;;;;;;5.60;2.30;;;;;;;17.00;55.79;99289.64;110168;1276;22467;-45
2024/03/28 14:00:41;;;;;;;9.40;2.80;;;;;;;17.02;56.04;99284.26;110164;1272;22250;-46
2024/03/28 14:03:08;;;;;;;9.60;1.60;;;;;;;17.05;55.89;99282.40;109421;1276;22911;-53
2024/03/28 14:05:36;;;;;;;6.20;1.60;;;;;;;17.03;55.59;99296.04;108978;1270;22421;-45
2024/03/28 14:08:04;;;;;;;8.70;2.50;;;;;;;17.00;55.85;99297.59;109236;1270;23228;-52
2024/03/28 14:10:38;;;;;;;6.30;2.40;;;;;;;16.99;56.17;99294.64;109444;1276;25443;-46
2024/03/28 14:13:06;;;;;;;9.70;1.80;;;;;;;16.96;55.92;99293.88;107949;1276;23195;-44
2024/03/28 14:15:34;;;;;;;7.80;1.80;;;;;;;16.92;55.95;99287.00;107919;1276;22526;-53
2024/03/28 14:18:03;;;;;;;7.30;1.80;;;;;;;16.88;55.93;99276.42;107922;1276;22527;-55
2024/03/28 14:20:31;;;;;;;9.60;2.30;;;;;;;16.86;56.20;99263.83;107298;1275;24183;-53
2024/03/28 14:22:58;;;;;;;6.70;2.00;;;;;;;16.85;56.44;99258.42;107416;1276;24346;-53
2024/03/28 14:25:26;;;;;;;8.20;2.30;;;;;;;16.82;56.65;99248.13;109811;1276;22565;-47
2024/03/28 14:27:53;;;;;;;8.20;2.30;;;;;;;16.79;56.97;99237.55;109647;1274;22336;-54
2024/03/28 14:30:22;;;;;;;11.90;3.00;;;;;;;16.73;56.11;99227.57;110192;1276;22636;-53
2024/03/28 14:32:51;;;;;;;5.20;2.00;;;;;;;16.66;56.11;99222.91;110201;1276;22971;-51
2024/03/28 14:35:19;;;;;;;8.50;2.20;;;;;;;16.59;57.04;99213.84;109376;1276;22523;-45
2024/03/28 14:37:47;;;;;;;6.20;1.80;;;;;;;16.53;57.27;99216.77;109065;1276;23006;-46
2024/03/28 14:40:14;;;;;;;10.10;1.80;;;;;;;16.47;56.85;99222.28;108366;1276;22520;-45
2024/03/28 14:42:42;;;;;;;9.50;1.90;;;;;;;16.42;56.42;99220.75;109391;1275;24361;-46
2024/03/28 14:45:10;;;;;;;9.70;1.90;;;;;;;16.38;57.19;99222.98;107661;1275;25425;-54
2024/03/28 14:47:39;;;;;;;11.00;2.00;;;;;;;16.34;57.22;99217.16;108938;1276;26608;-52
2024/03/28 14:50:07;;;;;;;2.80;1.50;;;;;;;16.30;57.31;99217.68;109823;1276;23046;-46
2024/03/28 14:52:34;;;;;;;12.50;2.80;;;;;;;16.27;57.83;99216.25;110172;1276;23299;-51
2024/03/28 14:55:02;;;;;;;6.10;2.50;;;;;;;16.23;57.92;99209.89;109017;1276;22631;-51
2024/03/28 14:57:29;;;;;;;9.60;2.30;;;;;;;16.19;58.26;99208.64;107437;1276;24189;-52
2024/03/28 14:59:57;;;;;;;7.90;2.90;;;;;;;16.14;58.00;99206.55;107423;1276;22509;-53
2024/03/28 15:02:24;;;;;;;8.10;2.90;;;;;;;16.09;58.21;99203.38;110248;1276;22202;-45
2024/03/28 15:04:52;;;;;;;10.80;2.80;;;;;;;16.06;58.53;99193.15;110216;1276;22565;-51
2024/03/28 15:07:21;;;;;;;11.50;3.20;;;;;;;16.02;58.39;99186.46;110187;1276;22445;-52
2024/03/28 15:09:48;;;;;;;11.30;3.20;;;;;;;15.99;58.33;99178.32;109408;1276;22625;-46
2024/03/28 15:12:16;;;;;;;8.10;2.90;;;;;;;15.95;58.78;99172.13;109541;1276;22548;-49
2024/03/28 15:14:43;;;;;;;12.60;2.90;;;;;;;15.91;59.03;99170.68;110244;1276;22295;-46
2024/03/28 15:17:11;;;;;;;13.70;2.70;;;;;;;15.88;58.83;99164.83;107819;1276;22575;-54
2024/03/28 15:19:38;;;;;;;13.30;3.10;;;;;;;15.87;58.96;99157.86;107499;1276;24772;-52
